createdAt,value
2019-03-22T00:00:12.418Z,73.36
2019-03-22T00:01:12.415Z,73.02
2019-03-22T00:02:12.417Z,72.31
2019-03-22T00:03:12.382Z,72.75
2019-03-22T00:04:12.383Z,72.85
2019-03-22T00:05:12.362Z,73.02
2019-03-22T00:06:12.347Z,72.61
2019-03-22T00:07:12.347Z,72.65
2019-03-22T00:08:13.028Z,72.65
2019-03-22T00:09:12.324Z,72.75
2019-03-22T00:10:12.304Z,72.65
2019-03-22T00:11:12.286Z,72.75
2019-03-22T00:12:12.277Z,72.65
2019-03-22T00:13:12.268Z,72.65
2019-03-22T00:14:12.287Z,72.96
2019-03-22T00:15:12.262Z,73.06
2019-03-22T00:16:12.234Z,73.16
2019-03-22T00:17:12.221Z,72.55
2019-03-22T00:18:12.213Z,72.75
2019-03-22T00:19:12.239Z,73.16
2019-03-22T00:20:12.206Z,73.27
2019-03-22T00:21:12.186Z,72.96
2019-03-22T00:22:12.165Z,73.36
2019-03-22T00:23:12.154Z,73.06
2019-03-22T00:24:12.168Z,73.06
2019-03-22T00:25:12.146Z,73.16
2019-03-22T00:26:12.121Z,73.27
2019-03-22T00:27:16.698Z,72.85
2019-03-22T00:28:12.116Z,72.24
2019-03-22T00:29:12.104Z,72.75
2019-03-22T00:30:12.087Z,72.68
2019-03-22T00:31:12.066Z,72.68
2019-03-22T00:32:12.060Z,72.85
2019-03-22T00:33:12.045Z,73.16
2019-03-22T00:34:12.034Z,73.16
2019-03-22T00:35:12.033Z,73.09
2019-03-22T00:36:12.015Z,73.40
2019-03-22T00:37:12.000Z,73.71
2019-03-22T00:38:11.989Z,72.78
2019-03-22T00:39:11.997Z,73.50
2019-03-22T00:40:11.982Z,73.19
2019-03-22T00:41:11.971Z,73.61
2019-03-22T00:42:11.943Z,73.44
2019-03-22T00:43:11.933Z,73.61
2019-03-22T00:44:11.936Z,73.74
2019-03-22T00:45:11.935Z,73.54
2019-03-22T00:46:11.900Z,73.54
2019-03-22T00:47:12.011Z,73.74
2019-03-22T00:48:11.875Z,73.33
2019-03-22T00:49:11.875Z,73.33
2019-03-22T00:50:11.886Z,74.46
2019-03-22T00:51:11.851Z,74.67
2019-03-22T00:52:11.831Z,74.05
2019-03-22T00:53:11.823Z,74.26
2019-03-22T00:54:11.829Z,74.87
2019-03-22T00:55:11.815Z,73.44
2019-03-22T00:56:11.787Z,73.74
2019-03-22T00:57:11.787Z,74.26
2019-03-22T00:58:11.773Z,74.46
2019-03-22T00:59:11.757Z,73.44
2019-03-22T01:00:11.751Z,74.46
2019-03-22T01:01:11.739Z,74.60
2019-03-22T01:02:11.783Z,74.36
2019-03-22T01:03:11.708Z,74.26
2019-03-22T01:04:11.747Z,74.60
2019-03-22T01:05:11.699Z,74.19
2019-03-22T01:06:11.696Z,73.68
2019-03-22T01:07:11.667Z,73.33
2019-03-22T01:08:11.653Z,73.36
2019-03-22T01:09:11.642Z,73.68
2019-03-22T01:10:11.665Z,73.36
2019-03-22T01:11:11.626Z,73.54
2019-03-22T01:12:11.627Z,74.29
2019-03-22T01:13:11.616Z,74.19
2019-03-22T01:14:11.598Z,74.80
2019-03-22T01:15:11.582Z,74.60
2019-03-22T01:16:11.563Z,75.22
2019-03-22T01:17:11.552Z,75.63
2019-03-22T01:18:11.543Z,76.25
2019-03-22T01:19:11.530Z,76.56
2019-03-22T01:20:11.526Z,76.35
2019-03-22T01:21:11.515Z,76.45
2019-03-22T01:22:11.496Z,76.04
2019-03-22T01:23:11.484Z,76.25
2019-03-22T01:24:11.473Z,76.49
2019-03-22T01:25:11.475Z,76.49
2019-03-22T01:26:11.452Z,76.59
2019-03-22T01:27:11.439Z,76.56
2019-03-22T01:28:11.428Z,76.14
2019-03-22T01:29:11.419Z,76.25
2019-03-22T01:30:11.416Z,76.35
2019-03-22T01:31:11.395Z,76.28
2019-03-22T01:32:11.386Z,76.18
2019-03-22T01:33:11.373Z,76.70
2019-03-22T01:34:11.362Z,76.49
2019-03-22T01:35:11.360Z,76.90
2019-03-22T01:36:11.340Z,76.28
2019-03-22T01:37:11.333Z,76.39
2019-03-22T01:38:11.317Z,77.11
2019-03-22T01:39:11.305Z,76.28
2019-03-22T01:40:11.304Z,75.87
2019-03-22T01:41:11.283Z,75.46
2019-03-22T01:42:11.277Z,75.97
2019-03-22T01:43:11.264Z,76.28
2019-03-22T01:44:11.249Z,76.42
2019-03-22T01:45:11.248Z,76.32
2019-03-22T01:46:11.227Z,76.42
2019-03-22T01:47:11.217Z,76.21
2019-03-22T01:48:11.207Z,76.11
2019-03-22T01:49:11.194Z,76.11
2019-03-22T01:50:11.192Z,76.53
2019-03-22T01:51:11.174Z,76.01
2019-03-22T01:52:11.162Z,76.32
2019-03-22T01:53:11.151Z,76.73
2019-03-22T01:54:11.140Z,76.32
2019-03-22T01:55:11.135Z,77.66
2019-03-22T01:56:11.116Z,77.18
2019-03-22T01:57:11.105Z,76.87
2019-03-22T01:58:11.096Z,76.35
2019-03-22T01:59:11.083Z,76.66
2019-03-22T02:00:11.080Z,76.66
2019-03-22T02:01:11.061Z,76.15
2019-03-22T02:02:11.048Z,76.04
2019-03-22T02:03:11.038Z,76.87
2019-03-22T02:04:11.035Z,77.90
2019-03-22T02:05:11.025Z,77.90
2019-03-22T02:06:11.021Z,78.21
2019-03-22T02:07:10.993Z,77.90
2019-03-22T02:08:10.984Z,78.21
2019-03-22T02:09:10.970Z,78.21
2019-03-22T02:10:10.967Z,78.21
2019-03-22T02:11:10.953Z,77.62
2019-03-22T02:12:10.938Z,77.80
2019-03-22T02:13:10.932Z,77.80
2019-03-22T02:14:10.915Z,77.38
2019-03-22T02:15:10.914Z,78.24
2019-03-22T02:16:10.901Z,78.14
2019-03-22T02:17:10.883Z,78.04
2019-03-22T02:18:10.871Z,78.04
2019-03-22T02:19:10.860Z,78.66
2019-03-22T02:20:10.860Z,77.97
2019-03-22T02:21:10.837Z,78.08
2019-03-22T02:22:10.828Z,78.49
2019-03-22T02:23:10.817Z,78.69
2019-03-22T02:24:10.806Z,78.49
2019-03-22T02:25:10.801Z,78.69
2019-03-22T02:26:10.781Z,77.94
2019-03-22T02:27:10.769Z,78.14
2019-03-22T02:28:10.779Z,78.14
2019-03-22T02:29:10.750Z,78.24
2019-03-22T02:30:10.747Z,78.18
2019-03-22T02:31:10.731Z,77.73
2019-03-22T02:32:10.713Z,77.45
2019-03-22T02:33:10.704Z,77.25
2019-03-22T02:34:10.695Z,76.90
2019-03-22T02:35:26.859Z,77.11
2019-03-22T02:36:11.724Z,77.01
2019-03-22T02:37:10.662Z,77.11
2019-03-22T02:38:10.649Z,78.04
2019-03-22T02:39:10.706Z,78.14
2019-03-22T02:40:10.858Z,77.31
2019-03-22T02:41:10.649Z,77.94
2019-03-22T02:42:10.604Z,77.97
2019-03-22T02:43:10.594Z,76.63
2019-03-22T02:44:10.582Z,78.28
2019-03-22T02:45:10.583Z,77.87
2019-03-22T02:46:10.562Z,76.90
2019-03-22T02:47:10.549Z,78.18
2019-03-22T02:48:10.537Z,78.08
2019-03-22T02:49:10.525Z,77.83
2019-03-22T02:50:17.897Z,77.31
2019-03-22T02:51:11.502Z,76.63
2019-03-22T02:52:10.494Z,76.94
2019-03-22T02:53:10.482Z,77.04
2019-03-22T02:54:10.472Z,76.53
2019-03-22T02:55:10.467Z,76.53
2019-03-22T02:56:10.606Z,77.04
2019-03-22T02:57:10.435Z,77.97
2019-03-22T02:58:20.564Z,78.38
2019-03-22T02:59:11.412Z,78.59
2019-03-22T03:00:10.410Z,79.14
2019-03-22T03:01:10.391Z,78.69
2019-03-22T03:02:10.399Z,79.55
2019-03-22T03:03:10.370Z,79.14
2019-03-22T03:04:10.359Z,80.07
2019-03-22T03:05:10.358Z,79.66
2019-03-22T03:06:10.334Z,80.55
2019-03-22T03:07:10.325Z,79.76
2019-03-22T03:08:10.314Z,79.83
2019-03-22T03:09:10.305Z,79.52
2019-03-22T03:10:10.335Z,79.83
2019-03-22T03:11:10.282Z,79.11
2019-03-22T03:12:10.267Z,79.83
2019-03-22T03:13:10.262Z,79.04
2019-03-22T03:14:10.253Z,79.21
2019-03-22T03:15:10.235Z,80.07
2019-03-22T03:16:10.235Z,79.97
2019-03-22T03:17:10.211Z,79.62
2019-03-22T03:18:10.213Z,79.93
2019-03-22T03:19:10.191Z,79.83
2019-03-22T03:20:10.182Z,79.86
2019-03-22T03:21:10.179Z,80.04
2019-03-22T03:22:10.158Z,80.14
2019-03-22T03:23:10.151Z,79.83
2019-03-22T03:24:10.136Z,79.41
2019-03-22T03:25:10.125Z,80.14
2019-03-22T03:26:10.122Z,79.11
2019-03-22T03:27:10.099Z,79.72
2019-03-22T03:28:10.089Z,79.41
2019-03-22T03:29:10.087Z,79.83
2019-03-22T03:30:10.077Z,80.14
2019-03-22T03:31:10.068Z,80.14
2019-03-22T03:32:10.047Z,79.93
2019-03-22T03:33:10.035Z,79.11
2019-03-22T03:34:10.031Z,80.55
2019-03-22T03:35:10.018Z,79.83
2019-03-22T03:36:10.010Z,80.44
2019-03-22T03:37:09.989Z,80.04
2019-03-22T03:38:09.982Z,80.65
2019-03-22T03:39:09.967Z,79.31
2019-03-22T03:40:09.955Z,79.83
2019-03-22T03:41:09.951Z,79.04
2019-03-22T03:42:09.932Z,79.11
2019-03-22T03:43:09.921Z,79.72
2019-03-22T03:44:09.913Z,79.62
2019-03-22T03:45:09.899Z,80.04
2019-03-22T03:46:09.896Z,79.62
2019-03-22T03:47:10.662Z,79.11
2019-03-22T03:48:09.866Z,79.31
2019-03-22T03:49:09.855Z,79.72
2019-03-22T03:50:09.845Z,79.00
2019-03-22T03:51:09.843Z,79.00
2019-03-22T03:52:09.825Z,80.44
2019-03-22T03:53:09.809Z,79.62
2019-03-22T03:54:09.803Z,80.14
2019-03-22T03:55:09.788Z,80.55
2019-03-22T03:56:09.786Z,80.34
2019-03-22T03:57:09.782Z,79.11
2019-03-22T03:58:09.754Z,79.72
2019-03-22T03:59:09.744Z,79.72
2019-03-22T04:00:09.733Z,79.72
2019-03-22T04:01:09.729Z,79.41
2019-03-22T04:02:09.710Z,79.48
2019-03-22T04:03:09.703Z,79.93
2019-03-22T04:04:09.687Z,79.83
2019-03-22T04:05:09.676Z,79.41
2019-03-22T04:06:09.677Z,80.14
2019-03-22T04:07:09.652Z,79.52
2019-03-22T04:08:09.648Z,79.52
2019-03-22T04:09:09.631Z,78.59
2019-03-22T04:10:09.656Z,78.38
2019-03-22T04:11:09.616Z,77.97
2019-03-22T04:12:09.597Z,78.38
2019-03-22T04:13:09.595Z,78.59
2019-03-22T04:14:09.578Z,78.80
2019-03-22T04:15:09.565Z,78.49
2019-03-22T04:16:09.563Z,78.83
2019-03-22T04:17:09.544Z,79.35
2019-03-22T04:18:09.531Z,79.86
2019-03-22T04:19:09.539Z,79.55
2019-03-22T04:20:09.513Z,79.97
2019-03-22T04:21:09.507Z,79.35
2019-03-22T04:22:09.484Z,78.83
2019-03-22T04:23:09.475Z,79.86
2019-03-22T04:24:09.464Z,80.07
2019-03-22T04:25:09.469Z,79.59
2019-03-22T04:26:09.552Z,80.07
2019-03-22T04:27:09.430Z,80.18
2019-03-22T04:28:09.424Z,80.18
2019-03-22T04:29:09.412Z,80.07
2019-03-22T04:30:09.409Z,80.32
2019-03-22T04:31:09.397Z,80.38
2019-03-22T04:32:09.377Z,80.28
2019-03-22T04:33:09.362Z,80.11
2019-03-22T04:34:09.434Z,80.52
2019-03-22T04:35:09.351Z,80.11
2019-03-22T04:36:09.361Z,80.73
2019-03-22T04:37:09.321Z,80.52
2019-03-22T04:38:09.313Z,81.04
2019-03-22T04:39:09.294Z,81.04
2019-03-22T04:40:09.290Z,80.62
2019-03-22T04:41:09.284Z,80.52
2019-03-22T04:42:09.261Z,80.52
2019-03-22T04:43:09.249Z,80.52
2019-03-22T04:44:09.251Z,80.52
2019-03-22T04:45:09.225Z,80.73
2019-03-22T04:46:09.229Z,80.35
2019-03-22T04:47:09.204Z,80.52
2019-03-22T04:48:09.199Z,80.52
2019-03-22T04:49:09.183Z,80.21
2019-03-22T04:50:09.169Z,80.52
2019-03-22T04:51:09.172Z,80.52
2019-03-22T04:52:09.150Z,80.93
2019-03-22T04:53:09.139Z,80.62
2019-03-22T04:54:09.130Z,80.32
2019-03-22T04:55:09.117Z,80.04
2019-03-22T04:56:09.121Z,80.04
2019-03-22T04:57:09.094Z,80.21
2019-03-22T04:58:09.081Z,79.22
2019-03-22T04:59:18.474Z,80.25
2019-03-22T05:00:10.066Z,80.76
2019-03-22T05:01:09.047Z,80.76
2019-03-22T05:02:09.046Z,80.46
2019-03-22T05:03:09.029Z,80.97
2019-03-22T05:04:09.014Z,80.66
2019-03-22T05:05:09.013Z,80.76
2019-03-22T05:06:08.999Z,80.97
2019-03-22T05:07:08.990Z,81.07
2019-03-22T05:08:08.969Z,80.76
2019-03-22T05:09:08.959Z,80.76
2019-03-22T05:10:08.951Z,80.76
2019-03-22T05:11:08.944Z,80.76
2019-03-22T05:12:08.941Z,79.94
2019-03-22T05:13:08.913Z,80.56
2019-03-22T05:14:08.902Z,80.70
2019-03-22T05:15:08.891Z,80.70
2019-03-22T05:16:08.881Z,81.07
2019-03-22T05:17:08.881Z,80.60
2019-03-22T05:18:08.859Z,79.87
2019-03-22T05:19:08.848Z,80.18
2019-03-22T05:20:08.835Z,80.60
2019-03-22T05:21:08.822Z,80.60
2019-03-22T05:22:08.823Z,80.70
2019-03-22T05:23:08.801Z,80.80
2019-03-22T05:24:08.961Z,81.63
2019-03-22T05:25:08.781Z,81.42
2019-03-22T05:26:08.769Z,81.84
2019-03-22T05:27:08.765Z,81.84
2019-03-22T05:28:08.748Z,82.15
2019-03-22T05:29:08.736Z,81.94
2019-03-22T05:30:08.725Z,81.42
2019-03-22T05:31:08.711Z,81.01
2019-03-22T05:32:08.713Z,81.84
2019-03-22T05:33:08.693Z,81.73
2019-03-22T05:34:08.679Z,81.73
2019-03-22T05:35:08.673Z,81.11
2019-03-22T05:36:08.659Z,80.70
2019-03-22T05:37:08.660Z,81.32
2019-03-22T05:38:08.633Z,80.60
2019-03-22T05:39:08.624Z,80.70
2019-03-22T05:40:08.615Z,80.70
2019-03-22T05:41:08.601Z,80.80
2019-03-22T05:42:08.598Z,80.70
2019-03-22T05:43:08.578Z,81.73
2019-03-22T05:44:08.566Z,81.73
2019-03-22T05:45:08.563Z,81.80
2019-03-22T05:46:08.544Z,82.00
2019-03-22T05:47:08.541Z,81.28
2019-03-22T05:48:08.524Z,81.70
2019-03-22T05:49:08.511Z,80.87
2019-03-22T05:50:08.502Z,80.97
2019-03-22T05:51:08.488Z,81.90
2019-03-22T05:52:08.490Z,81.28
2019-03-22T05:53:08.465Z,81.70
2019-03-22T05:54:08.455Z,81.90
2019-03-22T05:55:08.443Z,80.97
2019-03-22T05:56:08.431Z,81.59
2019-03-22T05:57:13.335Z,81.38
2019-03-22T05:58:09.409Z,81.94
2019-03-22T05:59:08.400Z,81.70
2019-03-22T06:00:08.389Z,81.70
2019-03-22T06:01:08.378Z,81.80
2019-03-22T06:02:08.382Z,81.70
2019-03-22T06:03:08.357Z,81.86
2019-03-22T06:04:08.344Z,81.96
2019-03-22T06:05:08.331Z,81.66
2019-03-22T06:06:08.322Z,81.59
2019-03-22T06:07:08.314Z,81.66
2019-03-22T06:08:08.313Z,80.62
2019-03-22T06:09:08.288Z,81.14
2019-03-22T06:10:08.276Z,81.31
2019-03-22T06:11:08.264Z,80.93
2019-03-22T06:12:08.252Z,80.83
2019-03-22T06:13:08.254Z,80.73
2019-03-22T06:14:08.236Z,80.83
2019-03-22T06:15:08.219Z,80.48
2019-03-22T06:16:08.211Z,80.79
2019-03-22T06:17:08.198Z,80.69
2019-03-22T06:18:08.197Z,80.90
2019-03-22T06:19:08.176Z,80.69
2019-03-22T06:20:08.164Z,80.58
2019-03-22T06:21:08.157Z,80.90
2019-03-22T06:22:08.142Z,80.58
2019-03-22T06:23:08.138Z,80.28
2019-03-22T06:24:08.121Z,80.58
2019-03-22T06:25:08.108Z,80.44
2019-03-22T06:26:08.097Z,80.07
2019-03-22T06:27:08.086Z,80.34
2019-03-22T06:28:08.082Z,80.24
2019-03-22T06:29:08.068Z,80.07
2019-03-22T06:30:08.052Z,79.83
2019-03-22T06:31:08.040Z,79.62
2019-03-22T06:32:08.038Z,79.83
2019-03-22T06:33:08.027Z,79.52
2019-03-22T06:34:08.007Z,80.24
2019-03-22T06:35:07.999Z,79.21
2019-03-22T06:36:07.983Z,79.41
2019-03-22T06:37:07.974Z,80.14
2019-03-22T06:38:07.978Z,79.83
2019-03-22T06:39:07.950Z,78.80
2019-03-22T06:40:07.939Z,79.27
2019-03-22T06:41:07.933Z,78.86
2019-03-22T06:42:07.920Z,78.55
2019-03-22T06:43:07.918Z,78.66
2019-03-22T06:44:07.896Z,78.24
2019-03-22T06:45:07.883Z,78.41
2019-03-22T06:46:07.877Z,78.66
2019-03-22T06:47:07.861Z,78.11
2019-03-22T06:48:07.867Z,78.21
2019-03-22T06:49:07.839Z,77.90
2019-03-22T06:50:07.827Z,77.90
2019-03-22T06:51:07.819Z,78.00
2019-03-22T06:52:07.804Z,78.11
2019-03-22T06:53:07.813Z,78.31
2019-03-22T06:54:07.782Z,77.14
2019-03-22T06:55:07.773Z,78.28
2019-03-22T06:56:07.763Z,78.17
2019-03-22T06:57:07.752Z,76.93
2019-03-22T06:58:07.749Z,77.93
2019-03-22T06:59:07.729Z,77.42
2019-03-22T07:00:07.717Z,77.21
2019-03-22T07:01:07.704Z,77.00
2019-03-22T07:02:07.692Z,76.35
2019-03-22T07:03:07.693Z,76.04
2019-03-22T07:04:07.671Z,76.25
2019-03-22T07:05:07.662Z,75.90
2019-03-22T07:06:07.647Z,76.21
2019-03-22T07:07:07.637Z,75.08
2019-03-22T07:08:07.635Z,75.15
2019-03-22T07:09:07.622Z,74.33
2019-03-22T07:10:07.602Z,74.84
2019-03-22T07:11:07.592Z,74.70
2019-03-22T07:12:07.582Z,73.16
2019-03-22T07:13:07.579Z,73.57
2019-03-22T07:14:07.558Z,72.44
2019-03-22T07:15:07.553Z,72.75
2019-03-22T07:16:07.535Z,72.61
2019-03-22T07:17:07.526Z,72.20
2019-03-22T07:18:07.522Z,72.10
2019-03-22T07:19:07.505Z,72.10
2019-03-22T07:20:07.497Z,72.44
2019-03-22T07:21:07.481Z,72.65
2019-03-22T07:22:07.469Z,73.06
2019-03-22T07:23:07.469Z,73.44
2019-03-22T07:24:07.445Z,72.82
2019-03-22T07:25:07.437Z,72.24
2019-03-22T07:26:07.427Z,72.72
2019-03-22T07:27:07.413Z,72.61
2019-03-22T07:28:07.402Z,72.41
2019-03-22T07:29:07.401Z,72.58
2019-03-22T07:30:18.082Z,72.48
2019-03-22T07:31:08.372Z,71.55
2019-03-22T07:32:07.358Z,71.66
2019-03-22T07:33:07.348Z,71.25
2019-03-22T07:34:07.344Z,70.94
2019-03-22T07:35:07.323Z,71.72
2019-03-22T07:36:07.313Z,71.01
2019-03-22T07:37:07.302Z,70.90
2019-03-22T07:38:07.292Z,71.42
2019-03-22T07:39:07.294Z,71.11
2019-03-22T07:40:07.270Z,71.01
2019-03-22T07:41:07.257Z,71.28
2019-03-22T07:42:07.290Z,70.67
2019-03-22T07:43:07.245Z,70.97
2019-03-22T07:44:07.274Z,70.22
2019-03-22T07:45:07.225Z,69.81
2019-03-22T07:46:07.224Z,69.61
2019-03-22T07:47:07.199Z,69.17
2019-03-22T07:48:07.179Z,69.47
2019-03-22T07:49:07.186Z,69.06
2019-03-22T07:50:07.166Z,69.27
2019-03-22T07:51:07.153Z,69.06
2019-03-22T07:52:07.140Z,69.17
2019-03-22T07:53:07.141Z,69.17
2019-03-22T07:54:07.137Z,69.17
2019-03-22T07:55:07.104Z,68.86
2019-03-22T07:56:07.091Z,69.17
2019-03-22T07:57:07.087Z,68.55
2019-03-22T07:58:07.074Z,68.11
2019-03-22T07:59:09.666Z,68.11
2019-03-22T08:00:07.045Z,67.70
2019-03-22T08:01:07.053Z,67.16
2019-03-22T08:02:07.027Z,66.82
2019-03-22T08:03:07.014Z,66.41
2019-03-22T08:04:07.009Z,66.31
2019-03-22T08:05:06.990Z,65.97
2019-03-22T08:06:06.982Z,66.28
2019-03-22T08:07:06.967Z,65.36
2019-03-22T08:08:06.959Z,65.77
2019-03-22T08:09:06.956Z,64.95
2019-03-22T08:10:06.934Z,65.36
2019-03-22T08:11:06.934Z,66.04
2019-03-22T08:12:06.944Z,65.43
2019-03-22T08:13:06.906Z,64.37
2019-03-22T08:14:06.901Z,63.83
2019-03-22T08:15:08.385Z,64.22
2019-03-22T08:16:06.868Z,62.88
2019-03-22T08:17:06.863Z,62.58
2019-03-22T08:18:06.865Z,62.76
2019-03-22T08:19:06.843Z,62.11
2019-03-22T08:20:06.824Z,62.18
2019-03-22T08:21:06.844Z,61.14
2019-03-22T08:22:06.826Z,58.80
2019-03-22T08:23:06.787Z,59.20
2019-03-22T08:24:06.785Z,60.02
2019-03-22T08:25:06.787Z,60.12
2019-03-22T08:26:06.789Z,60.02
2019-03-22T08:27:06.744Z,59.68
2019-03-22T08:28:06.732Z,60.09
2019-03-22T08:29:06.773Z,59.86
2019-03-22T08:30:06.717Z,59.14
2019-03-22T08:31:06.734Z,57.79
2019-03-22T08:32:06.708Z,56.34
2019-03-22T08:33:06.680Z,56.73
2019-03-22T08:34:06.683Z,55.05
2019-03-22T08:35:06.658Z,54.33
2019-03-22T08:36:06.664Z,54.61
2019-03-22T08:37:06.631Z,53.65
2019-03-22T08:38:06.635Z,53.93
2019-03-22T08:39:06.646Z,52.39
2019-03-22T08:40:06.659Z,51.53
2019-03-22T08:41:06.600Z,50.29
2019-03-22T08:42:06.575Z,50.14
2019-03-22T08:43:06.567Z,48.72
2019-03-22T08:44:06.563Z,48.93
2019-03-22T08:45:06.550Z,49.53
2019-03-22T08:46:06.558Z,48.80
2019-03-22T08:47:06.520Z,48.37
2019-03-22T08:48:06.525Z,46.94
2019-03-22T08:49:09.313Z,47.12
2019-03-22T08:50:06.488Z,46.59
2019-03-22T08:51:06.482Z,46.37
2019-03-22T08:52:06.466Z,46.25
2019-03-22T08:53:06.453Z,44.83
2019-03-22T08:54:06.452Z,45.64
2019-03-22T08:55:06.432Z,44.02
2019-03-22T08:56:06.422Z,44.59
2019-03-22T08:57:06.433Z,44.57
2019-03-22T08:58:06.397Z,43.06
2019-03-22T08:59:06.410Z,43.74
2019-03-22T09:00:06.421Z,42.94
2019-03-22T09:01:06.367Z,43.06
2019-03-22T09:02:08.289Z,43.16
2019-03-22T09:03:06.367Z,43.16
2019-03-22T09:04:06.349Z,44.19
2019-03-22T09:05:06.359Z,44.15
2019-03-22T09:06:07.840Z,44.20
2019-03-22T09:07:06.342Z,42.88
2019-03-22T09:08:06.286Z,42.86
2019-03-22T09:09:06.278Z,41.53
2019-03-22T09:10:06.302Z,41.13
2019-03-22T09:11:06.253Z,40.91
2019-03-22T09:12:06.243Z,42.13
2019-03-22T09:13:06.257Z,42.24
2019-03-22T09:14:06.224Z,42.02
2019-03-22T09:15:06.237Z,41.69
2019-03-22T09:16:06.209Z,40.77
2019-03-22T09:17:06.190Z,40.03
2019-03-22T09:18:06.180Z,38.49
2019-03-22T09:19:06.205Z,38.70
2019-03-22T09:20:06.170Z,39.78
2019-03-22T09:21:06.142Z,38.64
2019-03-22T09:22:06.131Z,38.20
2019-03-22T09:23:06.118Z,36.89
2019-03-22T09:24:06.115Z,36.99
2019-03-22T09:25:06.128Z,36.87
2019-03-22T09:26:06.107Z,35.75
2019-03-22T09:27:06.152Z,36.85
2019-03-22T09:28:06.067Z,37.05
2019-03-22T09:29:06.051Z,36.97
2019-03-22T09:30:06.076Z,36.18
2019-03-22T09:31:13.335Z,37.17
2019-03-22T09:32:07.037Z,35.77
2019-03-22T09:33:06.009Z,35.88
2019-03-22T09:34:06.031Z,36.46
2019-03-22T09:35:06.097Z,35.66
2019-03-22T09:36:05.991Z,36.21
2019-03-22T09:37:08.871Z,36.61
2019-03-22T09:38:12.744Z,37.51
2019-03-22T09:39:06.973Z,37.23
2019-03-22T09:40:08.417Z,36.72
2019-03-22T09:41:05.933Z,36.91
2019-03-22T09:42:05.912Z,37.10
2019-03-22T09:43:05.900Z,36.91
2019-03-22T09:44:05.889Z,36.41
2019-03-22T09:45:05.925Z,36.91
2019-03-22T09:46:05.927Z,37.08
2019-03-22T09:47:05.862Z,35.59
2019-03-22T09:48:06.276Z,36.25
2019-03-22T09:49:05.846Z,36.16
2019-03-22T09:50:05.825Z,35.63
2019-03-22T09:51:05.835Z,34.31
2019-03-22T09:52:05.848Z,34.99
2019-03-22T09:53:05.845Z,34.22
2019-03-22T09:54:05.808Z,36.05
2019-03-22T09:55:13.514Z,35.97
2019-03-22T09:56:06.785Z,35.34
2019-03-22T09:57:05.746Z,35.50
2019-03-22T09:58:05.770Z,33.88
2019-03-22T09:59:05.726Z,34.00
2019-03-22T10:00:05.713Z,34.99
2019-03-22T10:01:05.769Z,34.00
2019-03-22T10:02:05.719Z,34.18
2019-03-22T10:03:05.682Z,33.29
2019-03-22T10:04:05.698Z,33.76
2019-03-22T10:05:05.724Z,34.03
2019-03-22T10:06:05.666Z,32.94
2019-03-22T10:07:05.638Z,32.54
2019-03-22T10:08:05.629Z,32.79
2019-03-22T10:09:05.774Z,33.42
2019-03-22T10:10:05.618Z,33.73
2019-03-22T10:11:05.609Z,33.52
2019-03-22T10:12:05.598Z,34.52
2019-03-22T10:13:05.604Z,34.10
2019-03-22T10:14:05.563Z,33.78
2019-03-22T10:15:05.551Z,33.27
2019-03-22T10:16:05.545Z,32.96
2019-03-22T10:17:05.589Z,33.82
2019-03-22T10:18:05.518Z,32.00
2019-03-22T10:19:05.515Z,32.37
2019-03-22T10:20:05.548Z,30.87
2019-03-22T10:21:05.498Z,31.15
2019-03-22T10:22:05.514Z,31.15
2019-03-22T10:23:05.503Z,30.85
2019-03-22T10:24:05.463Z,30.47
2019-03-22T10:25:05.492Z,31.16
2019-03-22T10:26:05.460Z,31.96
2019-03-22T10:27:05.586Z,32.14
2019-03-22T10:28:05.448Z,31.35
2019-03-22T10:29:06.866Z,31.36
2019-03-22T10:30:05.444Z,31.38
2019-03-22T10:31:05.414Z,32.98
2019-03-22T10:32:05.389Z,31.92
2019-03-22T10:33:05.378Z,32.82
2019-03-22T10:34:05.350Z,33.24
2019-03-22T10:35:05.364Z,33.25
2019-03-22T10:36:05.327Z,33.65
2019-03-22T10:37:05.349Z,33.55
2019-03-22T10:38:15.444Z,33.37
2019-03-22T10:39:06.321Z,33.98
2019-03-22T10:40:05.296Z,34.20
2019-03-22T10:41:05.274Z,33.63
2019-03-22T10:42:05.284Z,33.73
2019-03-22T10:43:05.270Z,34.27
2019-03-22T10:44:05.314Z,34.55
2019-03-22T10:45:05.256Z,35.26
2019-03-22T10:46:07.812Z,35.05
2019-03-22T10:47:05.270Z,34.25
2019-03-22T10:48:05.200Z,34.45
2019-03-22T10:49:05.188Z,33.76
2019-03-22T10:50:05.195Z,34.06
2019-03-22T10:51:05.173Z,33.60
2019-03-22T10:52:05.211Z,33.22
2019-03-22T10:53:05.155Z,34.01
2019-03-22T10:54:05.141Z,34.93
2019-03-22T10:55:23.281Z,35.41
2019-03-22T10:56:06.118Z,36.21
2019-03-22T10:57:05.149Z,34.31
2019-03-22T10:58:19.580Z,34.81
2019-03-22T10:59:06.083Z,35.61
2019-03-22T11:00:05.074Z,35.38
2019-03-22T11:01:08.173Z,33.68
2019-03-22T11:02:07.646Z,34.96
2019-03-22T11:03:05.048Z,33.67
2019-03-22T11:05:05.018Z,33.17
2019-03-22T11:06:05.009Z,33.76
2019-03-22T11:07:04.994Z,33.65
2019-03-22T11:08:04.993Z,32.56
2019-03-22T11:09:04.987Z,32.15
2019-03-22T11:10:04.962Z,32.56
2019-03-22T11:11:04.951Z,32.56
2019-03-22T11:12:12.080Z,33.04
2019-03-22T11:13:05.942Z,32.64
2019-03-22T11:14:04.919Z,32.84
2019-03-22T11:15:04.924Z,32.04
2019-03-22T11:16:04.897Z,32.95
2019-03-22T11:17:04.890Z,32.54
2019-03-22T11:18:04.884Z,33.02
2019-03-22T11:19:04.870Z,33.04
2019-03-22T11:20:04.859Z,32.64
2019-03-22T11:21:05.693Z,32.84
2019-03-22T11:22:04.833Z,32.65
2019-03-22T11:23:04.831Z,32.57
2019-03-22T11:24:04.814Z,31.97
2019-03-22T11:25:04.981Z,32.59
2019-03-22T11:26:04.808Z,32.68
2019-03-22T11:27:04.783Z,33.07
2019-03-22T11:28:04.783Z,32.17
2019-03-22T11:29:04.760Z,32.45
2019-03-22T11:30:04.745Z,31.45
2019-03-22T11:31:05.182Z,31.93
2019-03-22T11:32:12.336Z,31.53
2019-03-22T11:33:05.723Z,31.12
2019-03-22T11:34:04.753Z,31.02
2019-03-22T11:35:04.694Z,29.81
2019-03-22T11:36:04.693Z,31.29
2019-03-22T11:37:04.671Z,30.49
2019-03-22T11:38:04.668Z,31.29
2019-03-22T11:39:04.652Z,29.48
2019-03-22T11:40:04.640Z,29.39
2019-03-22T11:41:04.627Z,30.09
2019-03-22T11:42:04.617Z,29.98
2019-03-22T11:43:08.479Z,30.56
2019-03-22T11:44:04.599Z,29.25
2019-03-22T11:45:04.585Z,28.28
2019-03-22T11:46:04.576Z,28.27
2019-03-22T11:47:04.562Z,29.34
2019-03-22T11:48:04.554Z,28.73
2019-03-22T11:49:04.549Z,27.44
2019-03-22T11:50:04.532Z,27.25
2019-03-22T11:51:04.527Z,27.55
2019-03-22T11:52:04.508Z,28.72
2019-03-22T11:53:04.500Z,29.10
2019-03-22T11:54:04.499Z,27.50
2019-03-22T11:55:04.477Z,27.01
2019-03-22T11:56:04.476Z,27.01
2019-03-22T11:57:04.462Z,27.11
2019-03-22T11:58:04.447Z,27.21
2019-03-22T11:59:04.443Z,27.19
2019-03-22T12:00:04.423Z,27.28
2019-03-22T12:01:04.415Z,26.89
2019-03-22T12:02:04.423Z,26.90
2019-03-22T12:03:04.392Z,26.89
2019-03-22T12:04:04.392Z,27.08
2019-03-22T12:05:04.371Z,26.80
2019-03-22T12:06:04.363Z,26.50
2019-03-22T12:07:04.352Z,27.28
2019-03-22T12:08:04.375Z,26.19
2019-03-22T12:09:04.349Z,26.77
2019-03-22T12:10:04.319Z,25.28
2019-03-22T12:11:04.312Z,25.66
2019-03-22T12:12:04.299Z,25.45
2019-03-22T12:13:04.289Z,24.16
2019-03-22T12:14:04.287Z,25.03
2019-03-22T12:15:04.269Z,24.23
2019-03-22T12:16:04.257Z,24.11
2019-03-22T12:17:04.249Z,23.61
2019-03-22T12:18:04.241Z,23.58
2019-03-22T12:19:04.235Z,23.58
2019-03-22T12:20:04.245Z,22.59
2019-03-22T12:21:04.208Z,22.98
2019-03-22T12:22:04.196Z,22.81
2019-03-22T12:23:04.186Z,23.51
2019-03-22T12:24:04.183Z,23.50
2019-03-22T12:25:04.166Z,22.50
2019-03-22T12:26:04.157Z,22.69
2019-03-22T12:27:04.146Z,22.69
2019-03-22T12:28:04.149Z,22.48
2019-03-22T12:29:04.143Z,20.91
2019-03-22T12:30:04.114Z,22.08
2019-03-22T12:31:04.105Z,21.48
2019-03-22T12:32:04.099Z,20.40
2019-03-22T12:33:04.098Z,21.01
2019-03-22T12:34:04.317Z,22.17
2019-03-22T12:35:04.073Z,22.66
2019-03-22T12:36:04.055Z,22.46
2019-03-22T12:37:04.044Z,21.28
2019-03-22T12:38:04.035Z,21.28
2019-03-22T12:39:04.023Z,21.47
2019-03-22T12:40:04.024Z,21.47
2019-03-22T12:41:04.008Z,21.08
2019-03-22T12:42:03.994Z,20.68
2019-03-22T12:43:03.985Z,21.27
2019-03-22T12:44:03.974Z,21.17
2019-03-22T12:45:03.974Z,20.20
2019-03-22T12:46:03.955Z,21.87
2019-03-22T12:47:03.945Z,21.00
2019-03-22T12:48:03.933Z,20.62
2019-03-22T12:49:03.920Z,21.51
2019-03-22T12:50:03.922Z,21.02
2019-03-22T12:51:03.901Z,22.49
2019-03-22T12:52:03.891Z,22.49
2019-03-22T12:53:03.885Z,22.59